Du Bois, Pennsylvania
Current Conditions -  °F | °C
As of 3:53 PM on Tuesday 25 Nov 2014 (Local Time) from KDUJ Reporting Station
Broken Clouds Broken Clouds  
Wind Chill: 36°   Ceiling: 4400
Heat Index: 44°   Visibility: 10mi
Dew Point: 26°   Wind: 17mph
Humidity: 49%   Direction: 230°SW
Pressure: 29.99"   Gusts: 26mph
Location:  41.12°N, 78.76°W
Report Text: KDUJ 252053Z AUTO 23015G23KT 10SM BKN044 BKN050 07/M03 A2999 RMK AO2 SLP165 T00671033 53011
Loading
Personal Weather Stations






























Interactive Weather Map New forecast layout! Learn more

10-Day Weather Forecast

Advertisements
Track Severe Weather on mobile